createdAt,value
2019-03-29T00:00:54.005Z,77.82
2019-03-29T00:03:00.679Z,77.27
2019-03-29T00:05:07.383Z,70.03
2019-03-29T00:07:14.040Z,74.37
2019-03-29T00:09:20.711Z,73.85
2019-03-29T00:11:27.406Z,75.10
2019-03-29T00:13:34.088Z,78.22
2019-03-29T00:15:40.811Z,69.65
2019-03-29T00:17:48.981Z,81.55
2019-03-29T00:19:55.649Z,74.33
2019-03-29T00:22:02.320Z,74.05
2019-03-29T00:24:10.169Z,70.15
2019-03-29T00:26:16.854Z,79.37
2019-03-29T00:28:24.621Z,68.87
2019-03-29T00:30:31.314Z,68.80
2019-03-29T00:32:37.970Z,71.10
2019-03-29T00:34:44.720Z,74.22
2019-03-29T00:36:52.273Z,71.82
2019-03-29T00:38:59.032Z,70.00
2019-03-29T00:41:05.674Z,67.87
2019-03-29T00:43:12.441Z,64.22
2019-03-29T00:45:19.347Z,61.77
2019-03-29T00:47:26.018Z,73.55
2019-03-29T00:49:32.724Z,74.62
2019-03-29T00:51:39.387Z,62.98
2019-03-29T00:53:46.073Z,64.35
2019-03-29T00:55:52.780Z,64.37
2019-03-29T00:57:59.461Z,66.77
2019-03-29T01:00:09.158Z,63.65
2019-03-29T01:02:15.855Z,55.23
2019-03-29T01:04:22.597Z,58.20
2019-03-29T01:06:30.269Z,60.95
2019-03-29T01:08:37.946Z,61.98
2019-03-29T01:10:45.988Z,66.10
2019-03-29T01:12:52.853Z,68.78
2019-03-29T01:14:59.546Z,62.80
2019-03-29T01:17:06.284Z,64.90
2019-03-29T01:19:12.947Z,62.27
2019-03-29T01:21:19.654Z,68.30
2019-03-29T01:23:26.321Z,63.38
2019-03-29T01:25:32.990Z,64.40
2019-03-29T01:27:39.685Z,68.83
2019-03-29T01:29:46.344Z,70.67
2019-03-29T01:31:53.007Z,68.72
2019-03-29T01:33:59.717Z,64.40
2019-03-29T01:36:06.389Z,69.47
2019-03-29T01:38:21.571Z,72.10
2019-03-29T01:40:21.449Z,75.22
2019-03-29T01:42:28.112Z,67.58
2019-03-29T01:44:34.779Z,69.37
2019-03-29T01:46:41.484Z,72.97
2019-03-29T01:48:48.907Z,69.10
2019-03-29T01:50:55.853Z,70.90
2019-03-29T01:53:02.646Z,67.80
2019-03-29T01:55:10.113Z,66.75
2019-03-29T01:57:16.780Z,69.17
2019-03-29T01:59:23.487Z,68.12
2019-03-29T02:01:31.251Z,65.78
2019-03-29T02:03:37.923Z,72.03
2019-03-29T02:05:44.621Z,72.03
2019-03-29T02:07:51.300Z,67.10
2019-03-29T02:09:58.080Z,64.35
2019-03-29T02:12:04.976Z,72.42
2019-03-29T02:14:11.718Z,66.35
2019-03-29T02:16:18.397Z,63.05
2019-03-29T02:18:25.163Z,65.83
2019-03-29T02:20:31.839Z,69.32
2019-03-29T02:22:38.502Z,70.85
2019-03-29T02:24:45.195Z,66.15
2019-03-29T02:26:51.871Z,65.47
2019-03-29T02:28:58.532Z,66.33
2019-03-29T02:31:05.234Z,65.97
2019-03-29T02:33:11.892Z,61.55
2019-03-29T02:35:18.533Z,63.40
2019-03-29T02:37:25.226Z,63.80
2019-03-29T02:39:31.881Z,63.33
2019-03-29T02:41:38.548Z,64.30
2019-03-29T02:43:45.248Z,60.85
2019-03-29T02:45:51.922Z,60.60
2019-03-29T02:47:58.597Z,65.20
2019-03-29T02:50:08.667Z,58.70
2019-03-29T02:52:17.031Z,59.03
2019-03-29T02:54:23.693Z,56.13
2019-03-29T02:56:30.388Z,58.90
2019-03-29T02:58:37.124Z,64.40
2019-03-29T03:00:43.793Z,61.68
2019-03-29T03:02:50.493Z,58.15
2019-03-29T03:04:57.235Z,58.20
2019-03-29T03:07:03.906Z,56.25
2019-03-29T03:09:13.686Z,58.83
2019-03-29T03:11:18.970Z,61.40
2019-03-29T03:13:25.651Z,57.23
2019-03-29T03:15:32.466Z,55.15
2019-03-29T03:17:39.497Z,61.30
2019-03-29T03:19:46.180Z,62.30
2019-03-29T03:21:52.875Z,56.15
2019-03-29T03:23:59.546Z,53.80
2019-03-29T03:26:06.203Z,62.58
2019-03-29T03:28:12.913Z,53.95
2019-03-29T03:30:20.310Z,54.15
2019-03-29T03:32:27.061Z,54.10
2019-03-29T03:34:33.764Z,55.78
2019-03-29T03:36:40.430Z,57.45
2019-03-29T03:38:47.100Z,49.35
2019-03-29T03:40:53.835Z,60.08
2019-03-29T03:43:00.541Z,55.95
2019-03-29T03:45:10.256Z,58.08
2019-03-29T03:47:16.942Z,58.90
2019-03-29T03:49:23.611Z,60.92
2019-03-29T03:51:30.697Z,62.27
2019-03-29T03:53:37.397Z,59.80
2019-03-29T03:55:44.566Z,59.35
2019-03-29T03:57:51.454Z,67.40
2019-03-29T03:59:58.643Z,62.45
2019-03-29T04:02:05.305Z,63.33
2019-03-29T04:04:12.297Z,65.62
2019-03-29T04:06:19.027Z,59.77
2019-03-29T04:08:26.298Z,65.42
2019-03-29T04:10:32.964Z,53.17
2019-03-29T04:12:39.661Z,58.40
2019-03-29T04:14:46.423Z,51.02
2019-03-29T04:16:53.026Z,55.60
2019-03-29T04:18:59.722Z,54.73
2019-03-29T04:21:06.379Z,54.83
2019-03-29T04:23:13.045Z,59.40
2019-03-29T04:25:19.685Z,60.17
2019-03-29T04:27:26.353Z,56.23
2019-03-29T04:29:33.012Z,57.58
2019-03-29T04:31:39.718Z,56.05
2019-03-29T04:33:46.379Z,53.40
2019-03-29T04:35:53.131Z,50.90
2019-03-29T04:37:59.822Z,52.65
2019-03-29T04:40:08.894Z,54.03
2019-03-29T04:42:15.467Z,62.23
2019-03-29T04:44:22.160Z,63.52
2019-03-29T04:46:28.830Z,65.50
2019-03-29T04:48:35.573Z,61.68
2019-03-29T04:50:42.261Z,66.67
2019-03-29T04:52:48.943Z,65.20
2019-03-29T04:54:55.608Z,69.03
2019-03-29T04:57:02.305Z,70.60
2019-03-29T04:59:10.072Z,56.68
2019-03-29T05:01:17.488Z,63.80
2019-03-29T05:03:24.419Z,56.63
2019-03-29T05:05:31.070Z,60.38
2019-03-29T05:07:37.801Z,56.90
2019-03-29T05:09:44.509Z,58.80
2019-03-29T05:11:51.178Z,60.80
2019-03-29T05:13:57.959Z,65.78
2019-03-29T05:16:05.758Z,61.42
2019-03-29T05:18:12.429Z,58.20
2019-03-29T05:20:19.108Z,59.50
2019-03-29T05:22:25.805Z,54.40
2019-03-29T05:24:32.481Z,52.40
2019-03-29T05:26:39.171Z,58.08
2019-03-29T05:28:45.869Z,55.58
2019-03-29T05:30:52.534Z,56.50
2019-03-29T05:32:59.197Z,55.75
2019-03-29T05:35:07.417Z,57.73
2019-03-29T05:37:14.172Z,55.75
2019-03-29T05:39:20.890Z,55.60
2019-03-29T05:41:27.618Z,46.33
2019-03-29T05:43:34.353Z,53.10
2019-03-29T05:45:41.014Z,51.85
2019-03-29T05:47:47.714Z,51.95
2019-03-29T05:49:55.553Z,47.48
2019-03-29T05:52:02.219Z,50.50
2019-03-29T05:54:08.904Z,49.33
2019-03-29T05:56:15.791Z,44.98
2019-03-29T05:58:22.460Z,50.83
2019-03-29T06:00:29.157Z,46.60
2019-03-29T06:02:35.909Z,47.48
2019-03-29T06:04:42.575Z,55.25
2019-03-29T06:06:49.278Z,50.95
2019-03-29T06:08:55.946Z,47.35
2019-03-29T06:11:02.610Z,49.75
2019-03-29T06:13:09.381Z,56.88
2019-03-29T06:15:16.268Z,51.98
2019-03-29T06:17:22.944Z,49.00
2019-03-29T06:19:29.648Z,52.80
2019-03-29T06:21:36.313Z,49.70
2019-03-29T06:23:42.986Z,48.55
2019-03-29T06:25:49.717Z,46.25
2019-03-29T06:27:57.388Z,46.83
2019-03-29T06:30:05.927Z,46.88
2019-03-29T06:32:12.697Z,44.10
2019-03-29T06:34:19.402Z,50.43
2019-03-29T06:36:28.310Z,47.03
2019-03-29T06:38:37.406Z,53.60
2019-03-29T06:42:49.727Z,43.30
2019-03-29T06:44:56.415Z,47.40
2019-03-29T06:47:03.082Z,48.00
2019-03-29T06:49:09.823Z,47.33
2019-03-29T06:51:16.579Z,45.50
2019-03-29T06:53:23.243Z,46.88
2019-03-29T06:55:29.912Z,43.83
2019-03-29T06:57:37.784Z,45.20
2019-03-29T06:59:44.453Z,47.83
2019-03-29T07:01:51.139Z,48.68
2019-03-29T07:03:57.841Z,41.75
2019-03-29T07:06:04.522Z,44.08
2019-03-29T07:08:11.206Z,42.03
2019-03-29T07:10:17.881Z,38.35
2019-03-29T07:12:24.551Z,37.85
2019-03-29T07:14:31.226Z,36.25
2019-03-29T07:16:37.949Z,33.10
2019-03-29T07:18:44.610Z,36.17
2019-03-29T07:20:51.391Z,34.40
2019-03-29T07:22:58.091Z,33.95
2019-03-29T07:25:07.169Z,36.90
2019-03-29T07:27:13.911Z,34.27
2019-03-29T07:29:20.616Z,30.15
2019-03-29T07:31:28.375Z,37.03
2019-03-29T07:33:35.143Z,32.35
2019-03-29T07:35:41.841Z,30.55
2019-03-29T07:37:48.517Z,30.25
2019-03-29T07:39:55.399Z,26.62
2019-03-29T07:42:02.091Z,29.02
2019-03-29T07:44:08.762Z,23.10
2019-03-29T07:46:15.428Z,18.25
2019-03-29T07:48:22.214Z,19.98
2019-03-29T07:50:28.934Z,19.32
2019-03-29T07:52:35.666Z,15.90
2019-03-29T07:54:42.420Z,15.13
2019-03-29T07:56:49.085Z,16.93
2019-03-29T07:58:55.749Z,13.90
2019-03-29T08:01:02.538Z,12.82
2019-03-29T08:03:09.188Z,14.63
2019-03-29T08:05:15.785Z,16.45
2019-03-29T08:07:27.477Z,14.95
2019-03-29T08:09:30.909Z,13.65
2019-03-29T08:11:46.008Z,13.13
2019-03-29T08:13:45.944Z,12.40
2019-03-29T08:15:52.708Z,15.03
2019-03-29T08:18:01.519Z,15.30
2019-03-29T08:20:37.504Z,14.30
2019-03-29T08:22:16.410Z,13.45
2019-03-29T08:24:23.187Z,13.88
2019-03-29T08:26:29.893Z,12.35
2019-03-29T08:28:36.561Z,15.60
2019-03-29T08:30:43.223Z,13.30
2019-03-29T08:32:49.926Z,14.77
2019-03-29T08:34:56.604Z,13.32
2019-03-29T08:37:03.261Z,13.15
2019-03-29T08:39:10.391Z,10.60
2019-03-29T08:41:17.195Z,12.23
2019-03-29T08:43:23.961Z,12.20
2019-03-29T08:45:30.654Z,12.40
2019-03-29T08:47:37.324Z,14.13
2019-03-29T08:49:43.992Z,17.48
2019-03-29T08:51:50.681Z,19.75
2019-03-29T08:53:57.374Z,19.37
2019-03-29T08:56:04.090Z,16.70
2019-03-29T08:58:10.785Z,21.82
2019-03-29T09:00:21.902Z,15.55
2019-03-29T09:02:28.654Z,17.15
2019-03-29T09:04:35.357Z,19.75
2019-03-29T09:06:53.142Z,17.52
2019-03-29T09:08:51.677Z,21.02
2019-03-29T09:10:58.388Z,18.75
2019-03-29T09:13:05.124Z,18.35
2019-03-29T09:15:11.781Z,18.75
2019-03-29T09:17:18.545Z,19.30
2019-03-29T09:19:25.211Z,20.50
2019-03-29T09:21:31.956Z,20.57
2019-03-29T09:23:38.656Z,19.60
2019-03-29T09:25:45.747Z,21.10
2019-03-29T09:27:52.413Z,18.23
2019-03-29T09:29:59.103Z,22.90
2019-03-29T09:32:05.778Z,26.70
2019-03-29T09:34:12.440Z,22.10
2019-03-29T09:36:19.165Z,19.35
2019-03-29T09:38:25.830Z,21.55
2019-03-29T09:40:32.575Z,23.25
2019-03-29T09:42:39.335Z,23.02
2019-03-29T09:44:46.012Z,19.98
2019-03-29T09:46:52.767Z,21.70
2019-03-29T09:48:59.587Z,55.63
2019-03-29T09:51:06.213Z,22.30
2019-03-29T09:53:12.891Z,17.92
2019-03-29T09:55:19.686Z,16.23
2019-03-29T09:57:37.335Z,21.35
2019-03-29T09:59:34.715Z,16.23
2019-03-29T10:01:41.412Z,18.40
2019-03-29T10:03:48.090Z,15.80
2019-03-29T10:05:54.759Z,20.88
2019-03-29T10:08:01.485Z,16.70
2019-03-29T10:10:08.541Z,18.40
2019-03-29T10:12:15.280Z,14.43
2019-03-29T10:14:21.981Z,17.50
2019-03-29T10:16:28.648Z,16.32
2019-03-29T10:18:35.314Z,15.08
2019-03-29T10:20:42.003Z,17.73
2019-03-29T10:22:48.674Z,17.87
2019-03-29T10:24:55.416Z,16.02
2019-03-29T10:27:02.115Z,16.90
2019-03-29T10:29:08.775Z,17.60
2019-03-29T10:31:15.450Z,16.50
2019-03-29T10:33:22.151Z,19.75
2019-03-29T10:35:28.822Z,17.90
2019-03-29T10:37:35.493Z,19.77
2019-03-29T10:39:42.274Z,14.73
2019-03-29T10:41:48.958Z,16.15
2019-03-29T10:43:55.625Z,15.28
2019-03-29T10:46:02.330Z,14.45
2019-03-29T10:48:08.995Z,16.65
2019-03-29T10:50:15.656Z,16.62
2019-03-29T10:52:22.349Z,18.23
2019-03-29T10:54:29.007Z,15.68
2019-03-29T10:56:35.684Z,16.05
2019-03-29T10:58:44.918Z,13.30
2019-03-29T11:00:50.757Z,14.45
2019-03-29T11:02:57.422Z,17.80
2019-03-29T11:05:05.519Z,14.00
2019-03-29T11:07:12.260Z,16.50
2019-03-29T11:09:18.931Z,11.70
2019-03-29T11:11:25.710Z,11.88
2019-03-29T11:13:32.374Z,17.77
2019-03-29T11:15:39.050Z,15.05
2019-03-29T11:17:45.750Z,13.40
2019-03-29T11:19:52.418Z,12.63
2019-03-29T11:21:59.086Z,15.20
2019-03-29T11:24:09.148Z,12.82
2019-03-29T11:26:14.946Z,15.98
2019-03-29T11:28:21.631Z,14.20
2019-03-29T11:30:41.438Z,11.55
2019-03-29T11:32:36.946Z,15.70
2019-03-29T11:34:43.688Z,13.95
2019-03-29T11:36:52.636Z,12.33
2019-03-29T11:38:58.681Z,9.93
2019-03-29T11:41:05.421Z,14.03
2019-03-29T11:43:25.744Z,10.50
2019-03-29T11:45:20.842Z,12.80
2019-03-29T11:47:27.511Z,14.40
2019-03-29T11:49:34.205Z,14.03
2019-03-29T11:51:40.949Z,14.28
2019-03-29T11:53:51.048Z,10.65
2019-03-29T11:55:57.027Z,14.50
2019-03-29T11:58:03.706Z,12.88
2019-03-29T12:00:12.050Z,18.37
2019-03-29T12:02:30.681Z,10.55
2019-03-29T12:04:27.105Z,9.50
2019-03-29T12:06:33.765Z,9.80
2019-03-29T12:08:40.543Z,10.55
2019-03-29T12:10:47.289Z,17.95
2019-03-29T12:12:54.097Z,11.43
2019-03-29T12:15:00.830Z,11.20
2019-03-29T12:17:07.497Z,13.80
2019-03-29T12:19:14.209Z,9.83
2019-03-29T12:21:20.904Z,15.55
2019-03-29T12:23:28.686Z,10.95
2019-03-29T12:25:35.361Z,14.73
2019-03-29T12:27:42.054Z,12.68
2019-03-29T12:29:48.723Z,10.23
2019-03-29T12:31:55.391Z,10.30
2019-03-29T12:34:03.157Z,17.27
2019-03-29T12:36:10.196Z,10.50
2019-03-29T12:38:16.934Z,10.95
2019-03-29T12:40:23.637Z,11.35
2019-03-29T12:42:30.305Z,14.85
2019-03-29T12:44:37.024Z,14.78
2019-03-29T12:46:43.787Z,17.02
2019-03-29T12:48:50.663Z,16.65
2019-03-29T12:50:57.377Z,13.58
2019-03-29T12:53:04.082Z,16.77
2019-03-29T12:55:10.839Z,13.53
2019-03-29T12:57:17.542Z,18.27
2019-03-29T12:59:24.260Z,12.65
2019-03-29T13:01:39.293Z,12.43
2019-03-29T13:03:39.292Z,15.70
2019-03-29T13:05:46.053Z,17.23
2019-03-29T13:07:53.832Z,15.83
2019-03-29T13:10:00.512Z,15.63
2019-03-29T13:12:07.273Z,19.23
2019-03-29T13:14:14.938Z,20.82
2019-03-29T13:16:21.678Z,18.67
2019-03-29T13:18:28.366Z,19.27
2019-03-29T13:20:35.034Z,16.30
2019-03-29T13:22:41.797Z,16.77
2019-03-29T13:24:48.510Z,14.35
2019-03-29T13:26:55.181Z,16.27
2019-03-29T13:29:01.853Z,18.62
2019-03-29T13:31:08.562Z,19.07
2019-03-29T13:33:15.563Z,16.35
2019-03-29T13:35:22.244Z,14.03
2019-03-29T13:37:29.013Z,13.62
2019-03-29T13:39:35.795Z,15.18
2019-03-29T13:41:42.473Z,16.10
2019-03-29T13:43:49.295Z,14.45
2019-03-29T13:45:55.969Z,16.97
2019-03-29T13:48:02.865Z,14.38
2019-03-29T13:50:11.194Z,17.30
2019-03-29T13:52:17.869Z,16.00
2019-03-29T13:54:24.542Z,20.32
2019-03-29T13:56:31.314Z,16.75
2019-03-29T13:58:37.991Z,18.50
2019-03-29T14:00:44.661Z,18.00
2019-03-29T14:02:51.362Z,13.65
2019-03-29T14:04:58.031Z,15.58
2019-03-29T14:07:04.830Z,17.80
2019-03-29T14:09:11.517Z,14.78
2019-03-29T14:11:18.192Z,15.72
2019-03-29T14:13:24.925Z,14.47
2019-03-29T14:15:31.709Z,15.38
2019-03-29T14:17:38.691Z,19.92
2019-03-29T14:19:45.364Z,14.63
2019-03-29T14:21:52.086Z,13.15
2019-03-29T14:23:58.755Z,14.55
2019-03-29T14:26:05.489Z,13.93
2019-03-29T14:28:12.184Z,13.95
2019-03-29T14:30:19.596Z,11.83
2019-03-29T14:32:26.340Z,14.50
2019-03-29T14:34:33.073Z,15.58
2019-03-29T14:36:39.747Z,16.15
2019-03-29T14:38:46.422Z,16.30
2019-03-29T14:40:53.188Z,14.58
2019-03-29T14:42:59.863Z,15.60
2019-03-29T14:45:08.710Z,14.47
2019-03-29T14:47:15.403Z,13.88
2019-03-29T14:49:22.112Z,18.15
2019-03-29T14:51:28.790Z,13.83
2019-03-29T14:53:35.500Z,11.70
2019-03-29T14:55:42.166Z,13.93
2019-03-29T14:57:48.831Z,16.75
2019-03-29T14:59:55.534Z,13.35
2019-03-29T15:02:03.211Z,15.43
2019-03-29T15:04:10.185Z,13.03
2019-03-29T15:06:16.877Z,19.77
2019-03-29T15:08:24.543Z,14.03
2019-03-29T15:10:31.219Z,17.73
2019-03-29T15:12:38.924Z,13.58
2019-03-29T15:14:45.660Z,15.08
2019-03-29T15:16:52.397Z,16.52
2019-03-29T15:18:59.179Z,11.15
2019-03-29T15:21:05.848Z,14.07
2019-03-29T15:23:12.600Z,15.25
2019-03-29T15:25:19.293Z,10.48
2019-03-29T15:27:25.956Z,13.18
2019-03-29T15:29:32.783Z,10.63
2019-03-29T15:31:39.474Z,10.70
2019-03-29T15:33:46.225Z,15.78
2019-03-29T15:35:52.904Z,11.63
2019-03-29T15:37:59.589Z,12.43
2019-03-29T15:40:07.556Z,12.43
2019-03-29T15:42:14.232Z,12.82
2019-03-29T15:44:21.085Z,12.30
2019-03-29T15:46:28.862Z,14.47
2019-03-29T15:48:35.552Z,15.30
2019-03-29T15:50:42.257Z,11.73
2019-03-29T15:52:48.924Z,11.83
2019-03-29T15:54:55.831Z,12.43
2019-03-29T15:57:02.515Z,12.03
2019-03-29T15:59:09.186Z,16.35
2019-03-29T16:01:15.851Z,18.05
2019-03-29T16:03:22.540Z,18.67
2019-03-29T16:05:29.206Z,12.47
2019-03-29T16:07:35.878Z,12.68
2019-03-29T16:09:42.568Z,16.35
2019-03-29T16:11:49.310Z,14.40
2019-03-29T16:13:56.043Z,14.75
2019-03-29T16:16:02.829Z,19.30
2019-03-29T16:18:09.501Z,11.12
2019-03-29T16:20:16.167Z,16.35
2019-03-29T16:22:23.136Z,14.13
2019-03-29T16:24:29.866Z,19.48
2019-03-29T16:26:36.517Z,16.20
2019-03-29T16:28:43.288Z,16.55
2019-03-29T16:30:50.041Z,17.60
2019-03-29T16:32:56.706Z,12.93
2019-03-29T16:35:03.471Z,17.15
2019-03-29T16:37:10.147Z,20.72
2019-03-29T16:39:16.903Z,16.50
2019-03-29T16:41:23.599Z,20.95
2019-03-29T16:43:31.364Z,14.10
2019-03-29T16:45:47.803Z,15.20
2019-03-29T16:47:46.672Z,22.00
2019-03-29T16:49:54.413Z,17.98
2019-03-29T16:52:01.084Z,20.02
2019-03-29T16:54:08.957Z,19.15
2019-03-29T16:56:15.693Z,20.70
2019-03-29T16:58:22.360Z,16.60
2019-03-29T17:00:29.119Z,15.03
2019-03-29T17:02:35.787Z,16.25
2019-03-29T17:04:42.537Z,14.87
2019-03-29T17:06:49.306Z,15.78
2019-03-29T17:08:55.973Z,17.30
2019-03-29T17:11:02.713Z,13.90
2019-03-29T17:13:09.498Z,14.23
2019-03-29T17:15:16.432Z,15.95
2019-03-29T17:17:23.144Z,16.67
2019-03-29T17:19:29.905Z,15.20
2019-03-29T17:21:36.642Z,16.80
2019-03-29T17:23:43.461Z,16.97
2019-03-29T17:25:50.229Z,15.68
2019-03-29T17:27:56.899Z,14.35
2019-03-29T17:30:04.533Z,13.88
2019-03-29T17:32:11.300Z,14.73
2019-03-29T17:34:17.970Z,14.87
2019-03-29T17:36:24.703Z,14.40
2019-03-29T17:38:31.485Z,14.73
2019-03-29T17:40:38.151Z,19.55
2019-03-29T17:42:44.816Z,17.23
2019-03-29T17:44:51.518Z,16.35
2019-03-29T17:46:58.191Z,18.98
2019-03-29T17:49:05.447Z,17.73
2019-03-29T17:51:13.679Z,20.17
2019-03-29T17:53:20.349Z,16.27
2019-03-29T17:55:31.663Z,19.25
2019-03-29T17:57:36.962Z,20.37
2019-03-29T17:59:43.649Z,17.60
2019-03-29T18:01:50.426Z,17.55
2019-03-29T18:03:57.185Z,16.00
2019-03-29T18:06:03.869Z,18.32
2019-03-29T18:08:10.551Z,18.77
2019-03-29T18:10:17.491Z,16.23
2019-03-29T18:12:24.299Z,14.18
2019-03-29T18:14:31.949Z,18.70
2019-03-29T18:16:38.636Z,14.10
2019-03-29T18:18:45.332Z,17.92
2019-03-29T18:20:52.214Z,16.17
2019-03-29T18:22:58.900Z,14.47
2019-03-29T18:25:09.868Z,14.35
2019-03-29T18:27:16.535Z,13.85
2019-03-29T18:29:23.452Z,15.43
2019-03-29T18:31:30.120Z,14.43
2019-03-29T18:33:37.157Z,16.35
2019-03-29T18:35:43.861Z,15.53
2019-03-29T18:37:50.598Z,13.88
2019-03-29T18:39:57.439Z,16.82
2019-03-29T18:42:05.610Z,14.63
2019-03-29T18:44:12.348Z,16.03
2019-03-29T18:46:20.190Z,14.00
2019-03-29T18:48:26.963Z,18.32
2019-03-29T18:50:33.702Z,14.28
2019-03-29T18:52:42.760Z,17.10
2019-03-29T18:54:50.302Z,15.28
2019-03-29T18:56:57.047Z,19.00
2019-03-29T18:59:03.784Z,15.60
2019-03-29T19:01:10.570Z,16.23
2019-03-29T19:03:17.313Z,18.77
2019-03-29T19:05:26.564Z,21.65
2019-03-29T19:07:34.443Z,19.62
2019-03-29T19:09:41.124Z,22.62
2019-03-29T19:11:48.173Z,25.27
2019-03-29T19:13:55.020Z,24.80
2019-03-29T19:16:01.700Z,25.62
2019-03-29T19:18:08.367Z,28.57
2019-03-29T19:20:26.646Z,30.92
2019-03-29T19:22:23.673Z,33.78
2019-03-29T19:24:30.519Z,33.78
2019-03-29T19:26:37.295Z,35.50
2019-03-29T19:28:43.971Z,34.43
2019-03-29T19:30:50.699Z,33.95
2019-03-29T19:32:57.472Z,36.58
2019-03-29T19:35:05.707Z,37.00
2019-03-29T19:37:12.463Z,36.05
2019-03-29T19:39:19.220Z,39.95
2019-03-29T19:41:27.420Z,37.58
2019-03-29T19:43:34.168Z,36.87
2019-03-29T19:45:41.053Z,36.95
2019-03-29T19:47:47.795Z,32.08
2019-03-29T19:49:55.537Z,33.42
2019-03-29T19:52:02.484Z,32.58
2019-03-29T19:54:09.222Z,26.75
2019-03-29T19:56:17.501Z,26.57
2019-03-29T19:58:24.269Z,26.90
2019-03-29T20:00:39.963Z,21.30
2019-03-29T20:02:46.690Z,21.30
2019-03-29T20:04:55.010Z,22.45
2019-03-29T20:07:01.752Z,20.52
2019-03-29T20:09:10.320Z,19.80
2019-03-29T20:11:17.383Z,19.25
2019-03-29T20:13:24.126Z,20.40
2019-03-29T20:15:30.807Z,24.15
2019-03-29T20:17:37.587Z,18.17
2019-03-29T20:19:44.250Z,21.40
2019-03-29T20:21:53.723Z,19.98
2019-03-29T20:24:00.497Z,22.40
2019-03-29T20:26:08.492Z,20.65
2019-03-29T20:28:15.371Z,18.83
2019-03-29T20:30:22.160Z,22.50
2019-03-29T20:32:29.126Z,22.17
2019-03-29T20:34:35.863Z,20.50
2019-03-29T20:36:42.661Z,19.23
2019-03-29T20:38:51.447Z,21.70
2019-03-29T20:40:58.170Z,19.17
2019-03-29T20:43:04.861Z,24.02
2019-03-29T20:45:11.732Z,20.90
2019-03-29T20:47:19.960Z,19.35
2019-03-29T20:49:26.743Z,17.30
2019-03-29T20:51:33.399Z,23.75
2019-03-29T20:53:43.492Z,21.45
2019-03-29T20:55:48.559Z,23.98
2019-03-29T20:57:55.294Z,21.75
2019-03-29T21:00:02.088Z,22.15
2019-03-29T21:02:08.845Z,19.30
2019-03-29T21:04:16.602Z,20.97
2019-03-29T21:06:24.711Z,18.75
2019-03-29T21:08:33.114Z,20.10
2019-03-29T21:10:39.794Z,18.73
2019-03-29T21:12:46.514Z,20.60
2019-03-29T21:14:53.322Z,20.70
2019-03-29T21:16:59.988Z,21.65
2019-03-29T21:19:10.761Z,21.30
2019-03-29T21:21:20.991Z,19.15
2019-03-29T21:23:29.406Z,20.40
2019-03-29T21:26:16.071Z,22.10
2019-03-29T21:28:34.826Z,21.62
2019-03-29T21:30:41.101Z,18.02
2019-03-29T21:35:59.892Z,18.07
2019-03-29T21:38:10.390Z,19.10
2019-03-29T21:40:18.637Z,19.37
2019-03-29T21:45:28.594Z,17.42
2019-03-29T21:47:29.715Z,17.30
2019-03-29T21:49:36.490Z,19.50
2019-03-29T21:51:44.981Z,18.45
2019-03-29T21:54:02.709Z,17.50
2019-03-29T21:56:25.319Z,16.40
2019-03-29T21:58:25.436Z,21.25
2019-03-29T22:00:33.668Z,19.35
2019-03-29T22:02:42.072Z,21.15
2019-03-29T22:04:49.127Z,19.57
2019-03-29T22:06:55.945Z,27.35
2019-03-29T22:12:18.166Z,27.30
2019-03-29T22:17:08.989Z,25.37
2019-03-29T22:28:33.194Z,27.67
2019-03-29T22:49:34.378Z,25.82
2019-03-29T22:51:41.046Z,27.95
2019-03-29T22:53:47.709Z,27.98
2019-03-29T22:55:54.401Z,27.05
2019-03-29T22:58:01.072Z,23.75
2019-03-29T23:00:24.333Z,27.17
2019-03-29T23:02:32.546Z,25.55
2019-03-29T23:04:39.287Z,27.32
2019-03-29T23:06:45.953Z,26.93
2019-03-29T23:08:52.757Z,25.27
2019-03-29T23:10:59.504Z,24.90
2019-03-29T23:13:07.781Z,25.82
2019-03-29T23:15:14.682Z,24.92
2019-03-29T23:17:21.422Z,27.20
2019-03-29T23:19:28.094Z,23.47
2019-03-29T23:21:34.875Z,25.32
2019-03-29T23:30:18.482Z,44.77
2019-03-29T23:32:25.144Z,47.23
2019-03-29T23:34:31.904Z,43.78
2019-03-29T23:36:38.602Z,40.23
2019-03-29T23:38:45.339Z,37.35
2019-03-29T23:40:52.028Z,36.45
2019-03-29T23:42:58.701Z,34.30
2019-03-29T23:45:08.290Z,28.70
2019-03-29T23:47:14.981Z,31.23
2019-03-29T23:49:21.844Z,34.80
2019-03-29T23:51:28.500Z,28.47
2019-03-29T23:53:35.282Z,30.25
2019-03-29T23:55:41.994Z,27.22
2019-03-29T23:57:48.817Z,30.85
2019-03-29T23:59:55.509Z,29.35
